PWSweather.com
Personal Weather Stations
Station Observations
KMAMEDFI2
Medfield, MA 02052

Medfield, MA 02052

Lat: 42.1900822, Lon: -71.3296889

Elevation: 138

Station Type: Rainwise WS MK-III

http://www.medfieldweather.com

High Low Average
Temperature 33.7°F0.9°C 22.4°F-5.3°C 30.6°F-0.8°C
Dew Point 28.5°F-1.9°C 14.1°F-9.9°C 21.9°F-5.6°C
Winds 11.5 mph 18.5 kmh 2.3 mph 3.7 kmh 6.0 mph WSW9.7 kmh WSW
Wind Gusts 25.3 mph40.7 kmh 2.3 mph3.7 kmh 9.0 mph14.5 kmh
Humidity 88% 57% 70%
Pressure 29.75 in1007.5 mb 29.39 in995.3 mb -
Precipitation 0.00 in0.0 mm - -
Hour Temp Dew Point Humidity Winds Wind Gusts Pressure Precip Precip Rate Daily Precip Total
12:00 AM 33.3°F0.7°C 25.9°F-3.4°C 74% 5.8 mph W9.3 kmh W 8.1 mph13.0 kmh 29.39 in995.3 mb - 0.00 in0.0 mm 0.10 in2.5 mm
12:10 AM 33.4°F0.8°C 26.0°F-3.3°C 74% 5.8 mph WSW9.3 kmh WSW 6.9 mph11.1 kmh 29.39 in995.3 mb - 0.00 in0.0 mm 0.10 in2.5 mm
12:20 AM 33.4°F0.8°C 25.7°F-3.5°C 73% 4.6 mph WSW7.4 kmh WSW 6.9 mph11.1 kmh 29.39 in995.3 mb - 0.00 in0.0 mm 0.10 in2.5 mm
12:30 AM 33.3°F0.7°C 25.9°F-3.4°C 74% 2.3 mph WNW3.7 kmh WNW 11.5 mph18.5 kmh 29.39 in995.3 mb - 0.00 in0.0 mm 0.10 in2.5 mm
12:40 AM 33.3°F0.7°C 25.2°F-3.8°C 72% 6.9 mph WSW11.1 kmh WSW 8.1 mph13.0 kmh 29.39 in995.3 mb - 0.00 in0.0 mm 0.10 in2.5 mm
12:50 AM 33.5°F0.8°C 25.4°F-3.7°C 72% 4.6 mph WSW7.4 kmh WSW 8.1 mph13.0 kmh 29.40 in995.6 mb - 0.00 in0.0 mm 0.10 in2.5 mm
01:00 AM 33.5°F0.8°C 25.8°F-3.4°C 73% 3.5 mph WSW5.6 kmh WSW 5.8 mph9.3 kmh 29.40 in995.6 mb - 0.00 in0.0 mm 0.00 in0.0 mm
01:10 AM 33.5°F0.8°C 25.1°F-3.8°C 71% 3.5 mph WSW5.6 kmh WSW 3.5 mph5.6 kmh 29.40 in995.6 mb - 0.00 in0.0 mm 0.00 in0.0 mm
01:20 AM 33.4°F0.8°C 25.0°F-3.9°C 71% 4.6 mph WSW7.4 kmh WSW 6.9 mph11.1 kmh 29.40 in995.6 mb - 0.00 in0.0 mm 0.00 in0.0 mm
01:30 AM 33.1°F0.6°C 24.7°F-4.1°C 71% 4.6 mph WSW7.4 kmh WSW 8.1 mph13.0 kmh 29.40 in995.6 mb - 0.00 in0.0 mm 0.00 in0.0 mm
01:40 AM 32.7°F0.4°C 24.7°F-4.1°C 72% 3.5 mph WSW5.6 kmh WSW 3.5 mph5.6 kmh 29.40 in995.6 mb - 0.00 in0.0 mm 0.00 in0.0 mm
01:50 AM 32.3°F0.2°C 24.3°F-4.3°C 72% 5.8 mph W9.3 kmh W 6.9 mph11.1 kmh 29.40 in995.6 mb - 0.00 in0.0 mm 0.00 in0.0 mm
02:00 AM 32.1°F0.1°C 24.1°F-4.4°C 72% 3.5 mph WSW5.6 kmh WSW 2.3 mph3.7 kmh 29.40 in995.6 mb - 0.00 in0.0 mm 0.00 in0.0 mm
02:10 AM 32.4°F0.2°C 24.0°F-4.4°C 71% 5.8 mph WNW9.3 kmh WNW 9.2 mph14.8 kmh 29.40 in995.6 mb - 0.00 in0.0 mm 0.00 in0.0 mm
02:20 AM 32.8°F0.4°C 24.4°F-4.2°C 71% 2.3 mph W3.7 kmh W 2.3 mph3.7 kmh 29.40 in995.6 mb - 0.00 in0.0 mm 0.00 in0.0 mm
02:30 AM 32.7°F0.4°C 24.3°F-4.3°C 71% 4.6 mph NW7.4 kmh NW 8.1 mph13.0 kmh 29.40 in995.6 mb - 0.00 in0.0 mm 0.00 in0.0 mm
02:40 AM 32.4°F0.2°C 24.4°F-4.2°C 72% 4.6 mph WSW7.4 kmh WSW 5.8 mph9.3 kmh 29.40 in995.6 mb - 0.00 in0.0 mm 0.00 in0.0 mm
02:50 AM 31.9°F-0.1°C 24.6°F-4.1°C 74% 2.3 mph WSW3.7 kmh WSW 9.2 mph14.8 kmh 29.40 in995.6 mb - 0.00 in0.0 mm 0.00 in0.0 mm
03:00 AM 31.9°F-0.1°C 24.6°F-4.1°C 74% 5.8 mph NW9.3 kmh NW 8.1 mph13.0 kmh 29.40 in995.6 mb - 0.00 in0.0 mm 0.00 in0.0 mm
03:10 AM 31.9°F-0.1°C 24.6°F-4.1°C 74% 2.3 mph SW3.7 kmh SW 5.8 mph9.3 kmh 29.40 in995.6 mb - 0.00 in0.0 mm 0.00 in0.0 mm
03:20 AM 32.1°F0.1°C 24.7°F-4.1°C 74% 4.6 mph WSW7.4 kmh WSW 8.1 mph13.0 kmh 29.40 in995.6 mb - 0.00 in0.0 mm 0.00 in0.0 mm
03:30 AM 32.3°F0.2°C 24.9°F-3.9°C 74% 2.3 mph W3.7 kmh W 5.8 mph9.3 kmh 29.40 in995.6 mb - 0.00 in0.0 mm 0.00 in0.0 mm
03:40 AM 32.5°F0.3°C 24.8°F-4.0°C 73% 6.9 mph WSW11.1 kmh WSW 8.1 mph13.0 kmh 29.40 in995.6 mb - 0.00 in0.0 mm 0.00 in0.0 mm
03:50 AM 32.7°F0.4°C 25.0°F-3.9°C 73% 6.9 mph SW11.1 kmh SW 6.9 mph11.1 kmh 29.40 in995.6 mb - 0.00 in0.0 mm 0.00 in0.0 mm
04:00 AM 32.6°F0.3°C 24.9°F-3.9°C 73% 4.6 mph SW7.4 kmh SW 6.9 mph11.1 kmh 29.40 in995.6 mb - 0.00 in0.0 mm 0.00 in0.0 mm
04:10 AM 32.6°F0.3°C 24.9°F-3.9°C 73% 2.3 mph SW3.7 kmh SW 3.5 mph5.6 kmh 29.40 in995.6 mb - 0.00 in0.0 mm 0.00 in0.0 mm
04:20 AM 32.5°F0.3°C 24.8°F-4.0°C 73% 5.8 mph WSW9.3 kmh WSW 8.1 mph13.0 kmh 29.40 in995.6 mb - 0.00 in0.0 mm 0.00 in0.0 mm
04:30 AM 32.5°F0.3°C 24.8°F-4.0°C 73% 3.5 mph WSW5.6 kmh WSW 5.8 mph9.3 kmh 29.40 in995.6 mb - 0.00 in0.0 mm 0.00 in0.0 mm
04:40 AM 32.5°F0.3°C 25.1°F-3.8°C 74% 3.5 mph WSW5.6 kmh WSW 6.9 mph11.1 kmh 29.40 in995.6 mb - 0.00 in0.0 mm 0.00 in0.0 mm
04:50 AM 32.4°F0.2°C 25.0°F-3.9°C 74% 3.5 mph W5.6 kmh W 5.8 mph9.3 kmh 29.40 in995.6 mb - 0.00 in0.0 mm 0.00 in0.0 mm
05:00 AM 32.3°F0.2°C 25.3°F-3.7°C 75% 3.5 mph W5.6 kmh W 5.8 mph9.3 kmh 29.40 in995.6 mb - 0.00 in0.0 mm 0.00 in0.0 mm
05:10 AM 32.3°F0.2°C 25.3°F-3.7°C 75% 3.5 mph WSW5.6 kmh WSW 6.9 mph11.1 kmh 29.40 in995.6 mb - 0.00 in0.0 mm 0.00 in0.0 mm
05:20 AM 32.2°F0.1°C 25.2°F-3.8°C 75% 4.6 mph WSW7.4 kmh WSW 9.2 mph14.8 kmh 29.40 in995.6 mb - 0.00 in0.0 mm 0.00 in0.0 mm
05:30 AM 32.2°F0.1°C 25.2°F-3.8°C 75% 3.5 mph W5.6 kmh W 6.9 mph11.1 kmh 29.40 in995.6 mb - 0.00 in0.0 mm 0.00 in0.0 mm
05:40 AM 32.1°F0.1°C 25.4°F-3.7°C 76% 4.6 mph WNW7.4 kmh WNW 10.4 mph16.7 kmh 29.40 in995.6 mb - 0.00 in0.0 mm 0.00 in0.0 mm
05:50 AM 32.1°F0.1°C 25.1°F-3.8°C 75% 5.8 mph SW9.3 kmh SW 5.8 mph9.3 kmh 29.39 in995.3 mb - 0.00 in0.0 mm 0.00 in0.0 mm
06:00 AM 32.0°F0.0°C 25.3°F-3.7°C 76% 4.6 mph WSW7.4 kmh WSW 6.9 mph11.1 kmh 29.39 in995.3 mb - 0.00 in0.0 mm 0.00 in0.0 mm
06:10 AM 32.1°F0.1°C 25.1°F-3.8°C 75% 8.1 mph SW13.0 kmh SW 8.1 mph13.0 kmh 29.40 in995.6 mb - 0.00 in0.0 mm 0.00 in0.0 mm
06:20 AM 32.0°F0.0°C 25.3°F-3.7°C 76% 5.8 mph SW9.3 kmh SW 9.2 mph14.8 kmh 29.40 in995.6 mb - 0.00 in0.0 mm 0.00 in0.0 mm
06:30 AM 31.8°F-0.1°C 25.1°F-3.8°C 76% 2.3 mph WSW3.7 kmh WSW 5.8 mph9.3 kmh 29.40 in995.6 mb - 0.00 in0.0 mm 0.00 in0.0 mm
06:40 AM 31.7°F-0.2°C 25.0°F-3.9°C 76% 3.5 mph WSW5.6 kmh WSW 2.3 mph3.7 kmh 29.40 in995.6 mb - 0.00 in0.0 mm 0.00 in0.0 mm
06:50 AM 31.7°F-0.2°C 25.0°F-3.9°C 76% 4.6 mph WSW7.4 kmh WSW 2.3 mph3.7 kmh 29.40 in995.6 mb - 0.00 in0.0 mm 0.00 in0.0 mm
07:00 AM 31.7°F-0.2°C 25.0°F-3.9°C 76% 3.5 mph W5.6 kmh W 6.9 mph11.1 kmh 29.40 in995.6 mb - 0.00 in0.0 mm 0.00 in0.0 mm
07:10 AM 31.9°F-0.1°C 24.9°F-3.9°C 75% 3.5 mph W5.6 kmh W 2.3 mph3.7 kmh 29.41 in995.9 mb - 0.00 in0.0 mm 0.00 in0.0 mm
07:20 AM 31.9°F-0.1°C 24.9°F-3.9°C 75% 3.5 mph WSW5.6 kmh WSW 5.8 mph9.3 kmh 29.41 in995.9 mb - 0.00 in0.0 mm 0.00 in0.0 mm
07:30 AM 31.9°F-0.1°C 24.9°F-3.9°C 75% 3.5 mph NW5.6 kmh NW 8.1 mph13.0 kmh 29.41 in995.9 mb - 0.00 in0.0 mm 0.00 in0.0 mm
07:40 AM 31.9°F-0.1°C 25.2°F-3.8°C 76% 4.6 mph W7.4 kmh W 3.5 mph5.6 kmh 29.42 in996.3 mb - 0.00 in0.0 mm 0.00 in0.0 mm
07:50 AM 31.9°F-0.1°C 24.9°F-3.9°C 75% 8.1 mph WSW13.0 kmh WSW 11.5 mph18.5 kmh 29.42 in996.3 mb - 0.00 in0.0 mm 0.00 in0.0 mm
08:00 AM 31.8°F-0.1°C 25.1°F-3.8°C 76% 6.9 mph WNW11.1 kmh WNW 8.1 mph13.0 kmh 29.42 in996.3 mb - 0.00 in0.0 mm 0.00 in0.0 mm
08:10 AM 31.6°F-0.2°C 25.3°F-3.7°C 77% 3.5 mph WSW5.6 kmh WSW 6.9 mph11.1 kmh 29.42 in996.3 mb - 0.00 in0.0 mm 0.00 in0.0 mm
08:20 AM 31.6°F-0.2°C 25.2°F-3.8°C 77% 4.6 mph WSW7.4 kmh WSW 9.2 mph14.8 kmh 29.42 in996.3 mb - 0.00 in0.0 mm 0.00 in0.0 mm
08:30 AM 31.6°F-0.2°C 25.2°F-3.8°C 77% 3.5 mph W5.6 kmh W 2.3 mph3.7 kmh 29.42 in996.3 mb - 0.00 in0.0 mm 0.00 in0.0 mm
08:40 AM 31.7°F-0.2°C 25.3°F-3.7°C 77% 2.3 mph WSW3.7 kmh WSW 2.3 mph3.7 kmh 29.43 in996.6 mb - 0.00 in0.0 mm 0.00 in0.0 mm
08:50 AM 31.9°F-0.1°C 25.2°F-3.8°C 76% 6.9 mph WSW11.1 kmh WSW 10.4 mph16.7 kmh 29.43 in996.6 mb - 0.00 in0.0 mm 0.00 in0.0 mm
09:00 AM 32.1°F0.1°C 25.3°F-3.7°C 76% 6.9 mph WSW11.1 kmh WSW 16.1 mph25.9 kmh 29.44 in997.0 mb - 0.00 in0.0 mm 0.00 in0.0 mm
09:10 AM 31.9°F-0.1°C 25.2°F-3.8°C 76% 2.3 mph WSW3.7 kmh WSW 2.3 mph3.7 kmh 29.44 in997.0 mb - 0.00 in0.0 mm 0.00 in0.0 mm
09:20 AM 31.9°F-0.1°C 25.2°F-3.8°C 76% 4.6 mph W7.4 kmh W 3.5 mph5.6 kmh 29.45 in997.3 mb - 0.00 in0.0 mm 0.00 in0.0 mm
09:30 AM 32.2°F0.1°C 25.2°F-3.8°C 75% 6.9 mph WSW11.1 kmh WSW 8.1 mph13.0 kmh 29.45 in997.3 mb - 0.00 in0.0 mm 0.00 in0.0 mm
09:40 AM 32.5°F0.3°C 25.1°F-3.8°C 74% 8.1 mph WSW13.0 kmh WSW 9.2 mph14.8 kmh 29.46 in997.6 mb - 0.00 in0.0 mm 0.00 in0.0 mm
09:50 AM 32.8°F0.4°C 25.5°F-3.6°C 74% 3.5 mph WNW5.6 kmh WNW 6.9 mph11.1 kmh 29.46 in997.6 mb - 0.00 in0.0 mm 0.00 in0.0 mm
10:00 AM 33.6°F0.9°C 25.5°F-3.6°C 72% 8.1 mph W13.0 kmh W 8.1 mph13.0 kmh 29.46 in997.6 mb - 0.00 in0.0 mm 0.00 in0.0 mm
10:10 AM 33.3°F0.7°C 25.2°F-3.8°C 72% 8.1 mph WSW13.0 kmh WSW 18.4 mph29.6 kmh 29.48 in998.3 mb - 0.00 in0.0 mm 0.00 in0.0 mm
10:20 AM 33.3°F0.7°C 25.2°F-3.8°C 72% 8.1 mph W13.0 kmh W 18.4 mph29.6 kmh 29.48 in998.3 mb - 0.00 in0.0 mm 0.00 in0.0 mm
10:30 AM 33.2°F0.7°C 24.5°F-4.2°C 70% 9.2 mph NW14.8 kmh NW 8.1 mph13.0 kmh 29.48 in998.3 mb - 0.00 in0.0 mm 0.00 in0.0 mm
10:40 AM 33.7°F0.9°C 24.3°F-4.3°C 68% 4.6 mph WSW7.4 kmh WSW 9.2 mph14.8 kmh 29.48 in998.3 mb - 0.00 in0.0 mm 0.00 in0.0 mm
10:50 AM 33.3°F0.7°C 26.2°F-3.2°C 75% 6.9 mph W11.1 kmh W 8.1 mph13.0 kmh 29.49 in998.6 mb - 0.00 in0.0 mm 0.00 in0.0 mm
11:00 AM 32.8°F0.4°C 26.1°F-3.3°C 76% 3.5 mph SSW5.6 kmh SSW 2.3 mph3.7 kmh 29.49 in998.6 mb - 0.00 in0.0 mm 0.00 in0.0 mm
11:10 AM 32.8°F0.4°C 24.7°F-4.1°C 72% 6.9 mph W11.1 kmh W 8.1 mph13.0 kmh 29.49 in998.6 mb - 0.00 in0.0 mm 0.00 in0.0 mm
11:20 AM 32.8°F0.4°C 25.1°F-3.8°C 73% 8.1 mph NW13.0 kmh NW 11.5 mph18.5 kmh 29.50 in999.0 mb - 0.00 in0.0 mm 0.00 in0.0 mm
11:30 AM 33.1°F0.6°C 24.4°F-4.2°C 70% 4.6 mph SSW7.4 kmh SSW 8.1 mph13.0 kmh 29.49 in998.6 mb - 0.00 in0.0 mm 0.00 in0.0 mm
11:40 AM 33.5°F0.8°C 24.1°F-4.4°C 68% 5.8 mph WSW9.3 kmh WSW 11.5 mph18.5 kmh 29.49 in998.6 mb - 0.00 in0.0 mm 0.00 in0.0 mm
11:50 AM 33.4°F0.8°C 22.9°F-5.1°C 65% 10.4 mph WSW16.7 kmh WSW 17.3 mph27.8 kmh 29.49 in998.6 mb - 0.00 in0.0 mm 0.00 in0.0 mm
12:00 PM 33.4°F0.8°C 24.0°F-4.4°C 68% 6.9 mph NW11.1 kmh NW 9.2 mph14.8 kmh 29.48 in998.3 mb - 0.00 in0.0 mm 0.00 in0.0 mm
12:10 PM 33.1°F0.6°C 25.0°F-3.9°C 72% 6.9 mph W11.1 kmh W 16.1 mph25.9 kmh 29.49 in998.6 mb - 0.00 in0.0 mm 0.00 in0.0 mm
12:20 PM 32.7°F0.4°C 25.9°F-3.4°C 76% 3.5 mph SW5.6 kmh SW 11.5 mph18.5 kmh 29.49 in998.6 mb - 0.00 in0.0 mm 0.00 in0.0 mm
12:30 PM 32.7°F0.4°C 26.6°F-3.0°C 78% 3.5 mph W5.6 kmh W 5.8 mph9.3 kmh 29.49 in998.6 mb - 0.00 in0.0 mm 0.00 in0.0 mm
12:40 PM 32.5°F0.3°C 26.7°F-2.9°C 79% 3.5 mph WSW5.6 kmh WSW 3.5 mph5.6 kmh 29.49 in998.6 mb - 0.00 in0.0 mm 0.00 in0.0 mm
12:50 PM 32.0°F0.0°C 27.8°F-2.3°C 84% 6.9 mph WSW11.1 kmh WSW 15.0 mph24.1 kmh 29.49 in998.6 mb - 0.00 in0.0 mm 0.00 in0.0 mm
01:00 PM 31.9°F-0.1°C 27.9°F-2.3°C 85% 9.2 mph WSW14.8 kmh WSW 10.4 mph16.7 kmh 29.49 in998.6 mb - 0.00 in0.0 mm 0.00 in0.0 mm
01:10 PM 31.7°F-0.2°C 28.0°F-2.2°C 86% 5.8 mph WNW9.3 kmh WNW 8.1 mph13.0 kmh 29.49 in998.6 mb - 0.00 in0.0 mm 0.00 in0.0 mm
01:20 PM 31.9°F-0.1°C 28.5°F-1.9°C 87% 5.8 mph NW9.3 kmh NW 8.1 mph13.0 kmh 29.49 in998.6 mb - 0.00 in0.0 mm 0.00 in0.0 mm
01:30 PM 31.5°F-0.3°C 28.4°F-2.0°C 88% 3.5 mph W5.6 kmh W 9.2 mph14.8 kmh 29.50 in999.0 mb - 0.00 in0.0 mm 0.00 in0.0 mm
01:40 PM 31.6°F-0.2°C 27.3°F-2.6°C 84% 6.9 mph S11.1 kmh S 8.1 mph13.0 kmh 29.49 in998.6 mb - 0.00 in0.0 mm 0.00 in0.0 mm
01:50 PM 32.0°F0.0°C 24.3°F-4.3°C 73% 6.9 mph WNW11.1 kmh WNW 15.0 mph24.1 kmh 29.50 in999.0 mb - 0.00 in0.0 mm 0.00 in0.0 mm
02:00 PM 32.3°F0.2°C 22.2°F-5.4°C 66% 5.8 mph WNW9.3 kmh WNW 11.5 mph18.5 kmh 29.49 in998.6 mb - 0.00 in0.0 mm 0.00 in0.0 mm
02:10 PM 32.9°F0.5°C 21.7°F-5.7°C 63% 8.1 mph WSW13.0 kmh WSW 9.2 mph14.8 kmh 29.50 in999.0 mb - 0.00 in0.0 mm 0.00 in0.0 mm
02:20 PM 33.1°F0.6°C 19.9°F-6.7°C 58% 10.4 mph WSW16.7 kmh WSW 25.3 mph40.7 kmh 29.50 in999.0 mb - 0.00 in0.0 mm 0.00 in0.0 mm
02:30 PM 32.9°F0.5°C 19.7°F-6.8°C 58% 8.1 mph W13.0 kmh W 11.5 mph18.5 kmh 29.50 in999.0 mb - 0.00 in0.0 mm 0.00 in0.0 mm
02:40 PM 32.9°F0.5°C 19.7°F-6.8°C 58% 6.9 mph WSW11.1 kmh WSW 11.5 mph18.5 kmh 29.50 in999.0 mb - 0.00 in0.0 mm 0.00 in0.0 mm
02:50 PM 32.7°F0.4°C 21.5°F-5.8°C 63% 5.8 mph NW9.3 kmh NW 11.5 mph18.5 kmh 29.51 in999.3 mb - 0.00 in0.0 mm 0.00 in0.0 mm
03:00 PM 32.3°F0.2°C 21.5°F-5.8°C 64% 5.8 mph WSW9.3 kmh WSW 10.4 mph16.7 kmh 29.52 in999.7 mb - 0.00 in0.0 mm 0.00 in0.0 mm
03:10 PM 32.2°F0.1°C 21.4°F-5.9°C 64% 6.9 mph WSW11.1 kmh WSW 11.5 mph18.5 kmh 29.52 in999.7 mb - 0.00 in0.0 mm 0.00 in0.0 mm
03:20 PM 31.9°F-0.1°C 20.7°F-6.3°C 63% 6.9 mph NW11.1 kmh NW 9.2 mph14.8 kmh 29.52 in999.7 mb - 0.00 in0.0 mm 0.00 in0.0 mm
03:30 PM 31.9°F-0.1°C 20.3°F-6.5°C 62% 3.5 mph WSW5.6 kmh WSW 9.2 mph14.8 kmh 29.53 in1000.0 mb - 0.00 in0.0 mm 0.00 in0.0 mm
03:40 PM 32.0°F0.0°C 20.1°F-6.6°C 61% 6.9 mph NW11.1 kmh NW 6.9 mph11.1 kmh 29.53 in1000.0 mb - 0.00 in0.0 mm 0.00 in0.0 mm
03:50 PM 32.3°F0.2°C 20.0°F-6.7°C 60% 4.6 mph WSW7.4 kmh WSW 5.8 mph9.3 kmh 29.54 in1000.3 mb - 0.00 in0.0 mm 0.00 in0.0 mm
04:00 PM 32.4°F0.2°C 20.0°F-6.7°C 60% 6.9 mph W11.1 kmh W 11.5 mph18.5 kmh 29.54 in1000.3 mb - 0.00 in0.0 mm 0.00 in0.0 mm
04:10 PM 32.5°F0.3°C 19.7°F-6.8°C 59% 8.1 mph WSW13.0 kmh WSW 15.0 mph24.1 kmh 29.55 in1000.7 mb - 0.00 in0.0 mm 0.00 in0.0 mm
04:20 PM 32.5°F0.3°C 18.9°F-7.3°C 57% 6.9 mph W11.1 kmh W 13.8 mph22.2 kmh 29.55 in1000.7 mb - 0.00 in0.0 mm 0.00 in0.0 mm
04:30 PM 32.3°F0.2°C 19.2°F-7.1°C 58% 11.5 mph W18.5 kmh W 15.0 mph24.1 kmh 29.56 in1001.0 mb - 0.00 in0.0 mm 0.00 in0.0 mm
04:40 PM 32.1°F0.1°C 19.0°F-7.2°C 58% 6.9 mph W11.1 kmh W 8.1 mph13.0 kmh 29.55 in1000.7 mb - 0.00 in0.0 mm 0.00 in0.0 mm
04:50 PM 31.9°F-0.1°C 18.4°F-7.6°C 57% 6.9 mph NW11.1 kmh NW 21.9 mph35.2 kmh 29.56 in1001.0 mb - 0.00 in0.0 mm 0.00 in0.0 mm
05:00 PM 31.8°F-0.1°C 18.7°F-7.4°C 58% 8.1 mph W13.0 kmh W 15.0 mph24.1 kmh 29.56 in1001.0 mb - 0.00 in0.0 mm 0.00 in0.0 mm
05:10 PM 31.5°F-0.3°C 18.4°F-7.6°C 58% 3.5 mph SW5.6 kmh SW 9.2 mph14.8 kmh 29.57 in1001.4 mb - 0.00 in0.0 mm 0.00 in0.0 mm
05:20 PM 30.9°F-0.6°C 17.8°F-7.9°C 58% 3.5 mph SW5.6 kmh SW 6.9 mph11.1 kmh 29.57 in1001.4 mb - 0.00 in0.0 mm 0.00 in0.0 mm
05:30 PM 30.7°F-0.7°C 17.7°F-7.9°C 58% 4.6 mph NNW7.4 kmh NNW 5.8 mph9.3 kmh 29.58 in1001.7 mb - 0.00 in0.0 mm 0.00 in0.0 mm
05:40 PM 30.5°F-0.8°C 17.9°F-7.8°C 59% 8.1 mph W13.0 kmh W 9.2 mph14.8 kmh 29.58 in1001.7 mb - 0.00 in0.0 mm 0.00 in0.0 mm
05:50 PM 30.4°F-0.9°C 18.2°F-7.7°C 60% 5.8 mph W9.3 kmh W 21.9 mph35.2 kmh 29.59 in1002.0 mb - 0.00 in0.0 mm 0.00 in0.0 mm
06:00 PM 30.5°F-0.8°C 18.3°F-7.6°C 60% 4.6 mph WSW7.4 kmh WSW 5.8 mph9.3 kmh 29.59 in1002.0 mb - 0.00 in0.0 mm 0.00 in0.0 mm
06:10 PM 30.3°F-0.9°C 18.8°F-7.3°C 62% 5.8 mph WNW9.3 kmh WNW 8.1 mph13.0 kmh 29.60 in1002.4 mb - 0.00 in0.0 mm 0.00 in0.0 mm
06:20 PM 30.0°F-1.1°C 18.6°F-7.4°C 62% 5.8 mph WSW9.3 kmh WSW 10.4 mph16.7 kmh 29.60 in1002.4 mb - 0.00 in0.0 mm 0.00 in0.0 mm
06:30 PM 29.7°F-1.3°C 18.7°F-7.4°C 63% 6.9 mph WSW11.1 kmh WSW 17.3 mph27.8 kmh 29.61 in1002.7 mb - 0.00 in0.0 mm 0.00 in0.0 mm
06:40 PM 29.3°F-1.5°C 19.0°F-7.2°C 65% 3.5 mph WSW5.6 kmh WSW 8.1 mph13.0 kmh 29.62 in1003.0 mb - 0.00 in0.0 mm 0.00 in0.0 mm
06:50 PM 29.0°F-1.7°C 18.0°F-7.8°C 63% 5.8 mph WSW9.3 kmh WSW 13.8 mph22.2 kmh 29.62 in1003.0 mb - 0.00 in0.0 mm 0.00 in0.0 mm
07:00 PM 28.9°F-1.7°C 17.9°F-7.8°C 63% 10.4 mph WSW16.7 kmh WSW 9.2 mph14.8 kmh 29.63 in1003.4 mb - 0.00 in0.0 mm 0.00 in0.0 mm
07:10 PM 28.7°F-1.8°C 17.7°F-7.9°C 63% 4.6 mph WNW7.4 kmh WNW 8.1 mph13.0 kmh 29.63 in1003.4 mb - 0.00 in0.0 mm 0.00 in0.0 mm
07:20 PM 28.3°F-2.1°C 17.3°F-8.2°C 63% 6.9 mph NW11.1 kmh NW 9.2 mph14.8 kmh 29.64 in1003.7 mb - 0.00 in0.0 mm 0.00 in0.0 mm
07:30 PM 27.9°F-2.3°C 17.3°F-8.2°C 64% 6.9 mph W11.1 kmh W 15.0 mph24.1 kmh 29.64 in1003.7 mb - 0.00 in0.0 mm 0.00 in0.0 mm
07:40 PM 27.9°F-2.3°C 17.3°F-8.2°C 64% 8.1 mph WSW13.0 kmh WSW 17.3 mph27.8 kmh 29.64 in1003.7 mb - 0.00 in0.0 mm 0.00 in0.0 mm
07:50 PM 27.9°F-2.3°C 17.3°F-8.2°C 64% 4.6 mph WNW7.4 kmh WNW 10.4 mph16.7 kmh 29.64 in1003.7 mb - 0.00 in0.0 mm 0.00 in0.0 mm
08:00 PM 27.8°F-2.3°C 17.2°F-8.2°C 64% 4.6 mph WNW7.4 kmh WNW 16.1 mph25.9 kmh 29.65 in1004.1 mb - 0.00 in0.0 mm 0.00 in0.0 mm
08:10 PM 27.7°F-2.4°C 17.5°F-8.1°C 65% 3.5 mph S5.6 kmh S 8.1 mph13.0 kmh 29.66 in1004.4 mb - 0.00 in0.0 mm 0.00 in0.0 mm
08:20 PM 27.6°F-2.4°C 17.0°F-8.3°C 64% 4.6 mph WSW7.4 kmh WSW 5.8 mph9.3 kmh 29.66 in1004.4 mb - 0.00 in0.0 mm 0.00 in0.0 mm
08:30 PM 27.6°F-2.4°C 17.4°F-8.1°C 65% 6.9 mph NW11.1 kmh NW 13.8 mph22.2 kmh 29.66 in1004.4 mb - 0.00 in0.0 mm 0.00 in0.0 mm
08:40 PM 27.3°F-2.6°C 17.1°F-8.3°C 65% 3.5 mph SW5.6 kmh SW 5.8 mph9.3 kmh 29.67 in1004.7 mb - 0.00 in0.0 mm 0.00 in0.0 mm
08:50 PM 27.0°F-2.8°C 17.8°F-7.9°C 68% 3.5 mph WSW5.6 kmh WSW 5.8 mph9.3 kmh 29.67 in1004.7 mb - 0.00 in0.0 mm 0.00 in0.0 mm
09:00 PM 26.9°F-2.8°C 17.8°F-7.9°C 68% 5.8 mph WNW9.3 kmh WNW 5.8 mph9.3 kmh 29.68 in1005.1 mb - 0.00 in0.0 mm 0.00 in0.0 mm
09:10 PM 26.8°F-2.9°C 17.7°F-7.9°C 68% 5.8 mph W9.3 kmh W 6.9 mph11.1 kmh 29.68 in1005.1 mb - 0.00 in0.0 mm 0.00 in0.0 mm
09:20 PM 26.6°F-3.0°C 17.5°F-8.1°C 68% 9.2 mph WSW14.8 kmh WSW 15.0 mph24.1 kmh 29.68 in1005.1 mb - 0.00 in0.0 mm 0.00 in0.0 mm
09:30 PM 26.4°F-3.1°C 17.6°F-8.0°C 69% 5.8 mph SW9.3 kmh SW 8.1 mph13.0 kmh 29.69 in1005.4 mb - 0.00 in0.0 mm 0.00 in0.0 mm
09:40 PM 26.0°F-3.3°C 17.5°F-8.1°C 70% 4.6 mph WSW7.4 kmh WSW 5.8 mph9.3 kmh 29.70 in1005.8 mb - 0.00 in0.0 mm 0.00 in0.0 mm
09:50 PM 25.9°F-3.4°C 17.1°F-8.3°C 69% 3.5 mph WSW5.6 kmh WSW 5.8 mph9.3 kmh 29.71 in1006.1 mb - 0.00 in0.0 mm 0.00 in0.0 mm
10:00 PM 25.6°F-3.6°C 17.5°F-8.1°C 71% 4.6 mph W7.4 kmh W 8.1 mph13.0 kmh 29.71 in1006.1 mb - 0.00 in0.0 mm 0.00 in0.0 mm
10:10 PM 25.3°F-3.7°C 17.2°F-8.2°C 71% 8.1 mph WSW13.0 kmh WSW 11.5 mph18.5 kmh 29.71 in1006.1 mb - 0.00 in0.0 mm 0.00 in0.0 mm
10:20 PM 25.1°F-3.8°C 16.7°F-8.5°C 70% 8.1 mph WSW13.0 kmh WSW 15.0 mph24.1 kmh 29.72 in1006.4 mb - 0.00 in0.0 mm 0.00 in0.0 mm
10:30 PM 24.9°F-3.9°C 16.2°F-8.8°C 69% 5.8 mph WSW9.3 kmh WSW 15.0 mph24.1 kmh 29.72 in1006.4 mb - 0.00 in0.0 mm 0.00 in0.0 mm
10:40 PM 24.8°F-4.0°C 16.0°F-8.9°C 69% 6.9 mph WSW11.1 kmh WSW 8.1 mph13.0 kmh 29.72 in1006.4 mb - 0.00 in0.0 mm 0.00 in0.0 mm
10:50 PM 24.5°F-4.2°C 15.5°F-9.2°C 68% 9.2 mph W14.8 kmh W 13.8 mph22.2 kmh 29.72 in1006.4 mb - 0.00 in0.0 mm 0.00 in0.0 mm
11:00 PM 24.2°F-4.3°C 15.5°F-9.2°C 69% 3.5 mph W5.6 kmh W 13.8 mph22.2 kmh 29.73 in1006.8 mb - 0.00 in0.0 mm 0.00 in0.0 mm
11:10 PM 24.0°F-4.4°C 15.3°F-9.3°C 69% 9.2 mph WNW14.8 kmh WNW 11.5 mph18.5 kmh 29.73 in1006.8 mb - 0.00 in0.0 mm 0.00 in0.0 mm
11:20 PM 23.9°F-4.5°C 14.9°F-9.5°C 68% 8.1 mph W13.0 kmh W 10.4 mph16.7 kmh 29.74 in1007.1 mb - 0.00 in0.0 mm 0.00 in0.0 mm
11:50 PM 23.2°F-4.9°C 14.2°F-9.9°C 68% 3.5 mph W5.6 kmh W 8.1 mph13.0 kmh 29.74 in1007.1 mb - 0.00 in0.0 mm 0.00 in0.0 mm